Time,TemperatureF,DewpointF,PressureIn,WindDirection,WindDirectionDegrees,WindSpeedMPH,WindSpeedGustMPH,Humidity,HourlyPrecipIn,Conditions,Clouds,dailyrainin,SoftwareType,DateUTC
2013-04-09 00:21:00,75.0,61.0,30.11,ESE,110,15.0,-999.0,60,-99.99,,,-99.99,,2013-04-09 05:21:00,
2013-04-09 00:32:00,75.0,61.0,30.11,ESE,110,15.0,-999.0,60,-99.99,,,-99.99,,2013-04-09 05:32:00,
2013-04-09 01:22:00,74.0,60.0,30.08,East,100,17.0,-999.0,61,-99.99,,,-99.99,,2013-04-09 06:22:00,
2013-04-09 01:31:00,74.0,60.0,30.08,East,100,17.0,-999.0,61,-99.99,,,-99.99,,2013-04-09 06:31:00,
2013-04-09 02:21:00,75.0,60.0,30.06,ESE,110,17.0,-999.0,59,-99.99,,,-99.99,,2013-04-09 07:21:00,
2013-04-09 02:32:00,75.0,60.0,30.06,ESE,110,17.0,-999.0,59,-99.99,,,-99.99,,2013-04-09 07:32:00,
2013-04-09 03:32:00,75.0,60.0,30.04,East,90,15.0,-999.0,60,-99.99,,,-99.99,,2013-04-09 08:32:00,
2013-04-09 04:00:00,76.0,73.0,30.03,ESE,120,18.0,-999.0,90,-99.99,,,-99.99,,2013-04-09 09:00:00,
2013-04-09 04:21:00,76.0,73.0,30.03,ESE,120,18.0,-999.0,90,-99.99,,,-99.99,,2013-04-09 09:21:00,
2013-04-09 04:32:00,76.0,73.0,30.03,ESE,120,18.0,-999.0,90,-99.99,,,-99.99,,2013-04-09 09:32:00,
2013-04-09 04:43:00,76.0,73.0,30.03,ESE,120,18.0,-999.0,90,-99.99,,,-99.99,,2013-04-09 09:43:00,
2013-04-09 04:52:00,76.0,73.0,30.03,ESE,120,18.0,-999.0,90,-99.99,,,-99.99,,2013-04-09 09:52:00,
2013-04-09 05:22:00,77.0,74.0,30.02,ESE,110,23.0,-999.0,89,-99.99,,,-99.99,,2013-04-09 10:22:00,
2013-04-09 05:32:00,77.0,74.0,30.02,ESE,110,23.0,-999.0,89,-99.99,,,-99.99,,2013-04-09 10:32:00,
2013-04-09 05:42:00,77.0,74.0,30.02,ESE,110,23.0,-999.0,89,-99.99,,,-99.99,,2013-04-09 10:42:00,
2013-04-09 05:52:00,77.0,74.0,30.02,ESE,110,23.0,-999.0,89,-99.99,,,-99.99,,2013-04-09 10:52:00,
2013-04-09 06:00:00,77.0,74.0,30.02,ESE,120,24.0,-999.0,89,-99.99,,,-99.99,,2013-04-09 11:00:00,
2013-04-09 06:22:00,77.0,74.0,30.02,ESE,120,24.0,-999.0,89,-99.99,,,-99.99,,2013-04-09 11:22:00,
2013-04-09 06:32:00,77.0,74.0,30.02,ESE,120,24.0,-999.0,89,-99.99,,,-99.99,,2013-04-09 11:32:00,
2013-04-09 06:42:00,77.0,74.0,30.02,ESE,120,24.0,-999.0,89,-99.99,,,-99.99,,2013-04-09 11:42:00,
2013-04-09 06:51:00,77.0,74.0,30.02,ESE,120,24.0,-999.0,89,-99.99,,,-99.99,,2013-04-09 11:51:00,
2013-04-09 07:00:00,77.0,74.0,30.02,ESE,120,24.0,-999.0,89,-99.99,,,-99.99,,2013-04-09 12:00:00,
2013-04-09 07:21:00,77.0,74.0,30.02,ESE,120,24.0,-999.0,89,-99.99,,,-99.99,,2013-04-09 12:21:00,
2013-04-09 07:32:00,77.0,74.0,30.02,ESE,120,24.0,-999.0,89,-99.99,,,-99.99,,2013-04-09 12:32:00,
2013-04-09 07:42:00,77.0,74.0,30.02,ESE,120,24.0,-999.0,89,-99.99,,,-99.99,,2013-04-09 12:42:00,
2013-04-09 07:52:00,77.0,74.0,30.02,ESE,120,24.0,-999.0,89,-99.99,,,-99.99,,2013-04-09 12:52:00,
2013-04-09 08:00:00,79.0,76.0,30.03,ESE,110,29.0,-999.0,89,-99.99,,,-99.99,,2013-04-09 13:00:00,
2013-04-09 08:21:00,79.0,76.0,30.03,ESE,110,29.0,-999.0,89,-99.99,,,-99.99,,2013-04-09 13:21:00,
2013-04-09 08:32:00,79.0,76.0,30.03,ESE,110,29.0,-999.0,89,-99.99,,,-99.99,,2013-04-09 13:32:00,
2013-04-09 08:41:00,79.0,76.0,30.03,ESE,110,29.0,-999.0,89,-99.99,,,-99.99,,2013-04-09 13:41:00,
2013-04-09 08:52:00,79.0,76.0,30.03,ESE,110,29.0,-999.0,89,-99.99,,,-99.99,,2013-04-09 13:52:00,
2013-04-09 09:00:00,79.0,76.0,30.09,ESE,110,25.0,-999.0,89,-99.99,,,-99.99,,2013-04-09 14:00:00,
2013-04-09 09:21:00,79.0,76.0,30.09,ESE,110,25.0,-999.0,89,-99.99,,,-99.99,,2013-04-09 14:21:00,
2013-04-09 09:31:00,79.0,76.0,30.09,ESE,110,25.0,-999.0,89,-99.99,,,-99.99,,2013-04-09 14:31:00,
2013-04-09 09:41:00,79.0,76.0,30.09,ESE,110,25.0,-999.0,89,-99.99,,,-99.99,,2013-04-09 14:41:00,
2013-04-09 09:51:00,79.0,76.0,30.09,ESE,110,25.0,-999.0,89,-99.99,,,-99.99,,2013-04-09 14:51:00,
2013-04-09 12:00:00,78.0,67.0,30.07,NNE,20,18.0,-999.0,70,-99.99,,,-99.99,,2013-04-09 17:00:00,
2013-04-09 12:22:00,78.0,67.0,30.07,NNE,20,18.0,-999.0,70,-99.99,,,-99.99,,2013-04-09 17:22:00,
2013-04-09 12:32:00,78.0,67.0,30.07,NNE,20,18.0,-999.0,70,-99.99,,,-99.99,,2013-04-09 17:32:00,
2013-04-09 12:42:00,78.0,67.0,30.07,NNE,20,18.0,-999.0,70,-99.99,,,-99.99,,2013-04-09 17:42:00,
2013-04-09 12:52:00,78.0,67.0,30.07,NNE,20,18.0,-999.0,70,-99.99,,,-99.99,,2013-04-09 17:52:00,
2013-04-09 13:22:00,79.0,70.0,30.08,NNE,20,39.0,-999.0,73,-99.99,,,-99.99,,2013-04-09 18:22:00,
2013-04-09 13:32:00,79.0,70.0,30.08,NNE,20,39.0,-999.0,73,-99.99,,,-99.99,,2013-04-09 18:32:00,
2013-04-09 13:42:00,79.0,70.0,30.08,NNE,20,39.0,-999.0,73,-99.99,,,-99.99,,2013-04-09 18:42:00,
2013-04-09 13:52:00,79.0,70.0,30.08,NNE,20,39.0,-999.0,73,-99.99,,,-99.99,,2013-04-09 18:52:00,
2013-04-09 14:00:00,81.0,67.0,30.00,North,10,30.0,-999.0,62,-99.99,,,-99.99,,2013-04-09 19:00:00,
2013-04-09 14:31:00,81.0,67.0,30.00,North,10,30.0,-999.0,62,-99.99,,,-99.99,,2013-04-09 19:31:00,
2013-04-09 14:41:00,81.0,67.0,30.00,North,10,30.0,-999.0,62,-99.99,,,-99.99,,2013-04-09 19:41:00,
2013-04-09 14:51:00,81.0,67.0,30.00,North,10,30.0,-999.0,62,-99.99,,,-99.99,,2013-04-09 19:51:00,
2013-04-09 15:00:00,81.0,67.0,29.99,NW,320,43.0,-999.0,62,-99.99,,,-99.99,,2013-04-09 20:00:00,
2013-04-09 15:32:00,81.0,67.0,29.99,NW,320,43.0,-999.0,62,-99.99,,,-99.99,,2013-04-09 20:32:00,
2013-04-09 15:42:00,81.0,67.0,29.99,NW,320,43.0,-999.0,62,-99.99,,,-99.99,,2013-04-09 20:42:00,
2013-04-09 15:52:00,81.0,67.0,29.99,NW,320,43.0,-999.0,62,-99.99,,,-99.99,,2013-04-09 20:52:00,
2013-04-09 16:00:00,81.0,77.0,29.94,West,270,31.0,-999.0,89,-99.99,,,-99.99,,2013-04-09 21:00:00,
2013-04-09 16:32:00,81.0,77.0,29.94,West,270,31.0,-999.0,89,-99.99,,,-99.99,,2013-04-09 21:32:00,
2013-04-09 16:42:00,81.0,77.0,29.94,West,270,31.0,-999.0,89,-99.99,,,-99.99,,2013-04-09 21:42:00,
2013-04-09 16:52:00,81.0,77.0,29.94,West,270,31.0,-999.0,89,-99.99,,,-99.99,,2013-04-09 21:52:00,
2013-04-09 17:00:00,81.0,78.0,29.92,West,280,32.0,-999.0,90,-99.99,,,-99.99,,2013-04-09 22:00:00,
2013-04-09 17:22:00,81.0,78.0,29.92,West,280,32.0,-999.0,90,-99.99,,,-99.99,,2013-04-09 22:22:00,
2013-04-09 17:32:00,81.0,78.0,29.92,West,280,32.0,-999.0,90,-99.99,,,-99.99,,2013-04-09 22:32:00,
2013-04-09 17:42:00,81.0,78.0,29.92,West,280,32.0,-999.0,90,-99.99,,,-99.99,,2013-04-09 22:42:00,
2013-04-09 17:52:00,81.0,78.0,29.92,West,280,32.0,-999.0,90,-99.99,,,-99.99,,2013-04-09 22:52:00,
2013-04-09 18:00:00,80.0,77.0,29.93,West,270,36.0,-999.0,90,-99.99,,,-99.99,,2013-04-09 23:00:00,
2013-04-09 18:22:00,80.0,77.0,29.93,West,270,36.0,-999.0,90,-99.99,,,-99.99,,2013-04-09 23:22:00,
2013-04-09 18:31:00,80.0,77.0,29.93,West,270,36.0,-999.0,90,-99.99,,,-99.99,,2013-04-09 23:31:00,
2013-04-09 18:42:00,80.0,77.0,29.93,West,270,36.0,-999.0,90,-99.99,,,-99.99,,2013-04-09 23:42:00,
2013-04-09 18:52:00,80.0,77.0,29.93,West,270,36.0,-999.0,90,-99.99,,,-99.99,,2013-04-09 23:52:00,
2013-04-09 19:00:00,80.0,77.0,29.92,West,270,33.0,-999.0,92,-99.99,,,-99.99,,2013-04-10 00:00:00,
2013-04-09 19:32:00,80.0,77.0,29.92,West,270,33.0,-999.0,92,-99.99,,,-99.99,,2013-04-10 00:32:00,
2013-04-09 19:41:00,80.0,77.0,29.92,West,270,33.0,-999.0,92,-99.99,,,-99.99,,2013-04-10 00:41:00,
2013-04-09 19:51:00,80.0,77.0,29.92,West,270,33.0,-999.0,92,-99.99,,,-99.99,,2013-04-10 00:51:00,